La Sarnosa, Argentina
Current Conditions -  °F | °C
As of 8:00 AM on Saturday 25 Oct 2014 (Local Time) from SARE Reporting Station
Clear Clear  
Wind Chill: 73°   Ceiling: Unl
Heat Index: 73°   Visibility: 5mi
Dew Point: 68°   Wind: 1mph
Humidity: 83%   Direction: 160°SSE
Pressure: 29.88"   Gusts: NA
Location:  29.23°S, 60.42°W
Report Text: SARE 251100Z 16001KT 8000 NSC 23/20 Q1012
Loading
Personal Weather Stations






























Interactive Weather Map New forecast layout! Learn more

10-Day Weather Forecast

Advertisements
Track Severe Weather on mobile